createdAt,value
2022-09-09T00:00:18.238Z,100713.50
2022-09-09T00:02:54.046Z,100714.56
2022-09-09T00:05:28.563Z,100710.41
2022-09-09T00:07:57.052Z,100717.50
2022-09-09T00:10:37.548Z,100714.88
2022-09-09T00:13:25.081Z,100713.34
2022-09-09T00:16:00.996Z,100715.25
2022-09-09T00:18:47.001Z,100716.41
2022-09-09T00:21:18.329Z,100713.13
2022-09-09T00:23:55.715Z,100715.06
2022-09-09T00:26:45.340Z,100711.41
2022-09-09T00:29:36.350Z,100703.59
2022-09-09T00:32:13.973Z,100697.53
2022-09-09T00:34:52.283Z,100696.84
2022-09-09T00:37:21.062Z,100693.22
2022-09-09T00:39:49.100Z,100697.63
2022-09-09T00:42:19.346Z,100698.75
2022-09-09T00:44:55.259Z,100692.53
2022-09-09T00:47:51.586Z,100691.56
2022-09-09T00:50:35.877Z,100685.50
2022-09-09T00:53:19.403Z,100700.19
2022-09-09T00:55:49.265Z,100698.53
2022-09-09T00:58:16.028Z,100699.72
2022-09-09T01:00:46.480Z,100702.13
2022-09-09T01:03:23.215Z,100693.50
2022-09-09T01:05:59.259Z,100700.88
2022-09-09T01:08:47.595Z,100710.72
2022-09-09T01:11:22.427Z,100704.56
2022-09-09T01:13:55.358Z,100708.41
2022-09-09T01:16:22.345Z,100709.53
2022-09-09T01:18:50.970Z,100710.59
2022-09-09T01:21:42.291Z,100702.44
2022-09-09T01:24:19.440Z,100699.06
2022-09-09T01:27:02.537Z,100707.13
2022-09-09T01:29:29.923Z,100704.88
2022-09-09T01:31:58.414Z,100707.28
2022-09-09T01:34:28.717Z,100711.72
2022-09-09T01:37:07.332Z,100705.28
2022-09-09T01:39:36.489Z,100709.72
2022-09-09T01:42:09.402Z,100712.41
2022-09-09T01:44:37.246Z,100707.03
2022-09-09T01:47:05.371Z,100703.47
2022-09-09T01:49:33.792Z,100704.44
2022-09-09T01:52:07.134Z,100706.34
2022-09-09T01:54:37.370Z,100703.72
2022-09-09T01:57:26.006Z,100698.34
2022-09-09T01:59:53.305Z,100709.97
2022-09-09T02:02:29.519Z,100705.56
2022-09-09T02:05:38.580Z,100712.16
2022-09-09T02:08:22.417Z,100714.91
2022-09-09T02:10:59.647Z,100712.44
2022-09-09T02:13:38.175Z,100715.28
2022-09-09T02:16:22.078Z,100708.75
2022-09-09T02:18:50.506Z,100708.75
2022-09-09T02:21:20.442Z,100709.03
2022-09-09T02:23:48.989Z,100707.06
2022-09-09T02:26:21.309Z,100711.81
2022-09-09T02:28:52.572Z,100715.53
2022-09-09T02:31:21.661Z,100711.28
2022-09-09T02:33:55.818Z,100717.44
2022-09-09T02:36:24.868Z,100709.47
2022-09-09T02:38:54.884Z,100713.28
2022-09-09T02:41:29.290Z,100713.28
2022-09-09T02:43:58.032Z,100718.94
2022-09-09T02:46:50.287Z,100704.44
2022-09-09T02:49:56.888Z,100707.19
2022-09-09T02:52:48.168Z,100709.31
2022-09-09T02:55:24.804Z,100716.59
2022-09-09T02:57:54.547Z,100704.09
2022-09-09T03:00:27.295Z,100710.44
2022-09-09T03:02:55.740Z,100710.50
2022-09-09T03:05:22.704Z,100726.06
2022-09-09T03:07:51.705Z,100726.06
2022-09-09T03:10:20.335Z,100727.13
2022-09-09T03:12:47.452Z,100737.25
2022-09-09T03:15:15.812Z,100730.22
2022-09-09T03:17:42.767Z,100725.81
2022-09-09T03:20:09.969Z,100729.34
2022-09-09T03:22:38.216Z,100736.56
2022-09-09T03:25:05.578Z,100734.88
2022-09-09T03:27:33.821Z,100736.78
2022-09-09T03:30:04.877Z,100741.47
2022-09-09T03:32:32.500Z,100743.19
2022-09-09T03:34:59.334Z,100739.91
2022-09-09T03:37:26.527Z,100739.03
2022-09-09T03:39:55.639Z,100741.88
2022-09-09T03:42:23.540Z,100742.69
2022-09-09T03:44:53.614Z,100742.75
2022-09-09T03:47:23.654Z,100742.81
2022-09-09T03:49:54.260Z,100742.03
2022-09-09T03:52:23.872Z,100734.22
2022-09-09T03:54:52.550Z,100738.50
2022-09-09T03:57:20.197Z,100734.22
2022-09-09T03:59:46.958Z,100739.66
2022-09-09T04:02:13.727Z,100732.56
2022-09-09T04:04:40.807Z,100728.97
2022-09-09T04:07:08.055Z,100727.25
2022-09-09T04:09:35.899Z,100736.25
2022-09-09T04:12:03.142Z,100729.31
2022-09-09T04:14:30.862Z,100733.03
2022-09-09T04:16:59.492Z,100739.25
2022-09-09T04:19:26.934Z,100743.84
2022-09-09T04:21:54.321Z,100750.19
2022-09-09T04:24:22.793Z,100749.41
2022-09-09T04:26:50.282Z,100743.06
2022-09-09T04:29:17.678Z,100753.09
2022-09-09T04:31:44.512Z,100747.66
2022-09-09T04:34:11.381Z,100753.00
2022-09-09T04:36:38.367Z,100746.00
2022-09-09T04:39:06.312Z,100753.97
2022-09-09T04:41:33.184Z,100755.94
2022-09-09T04:44:01.855Z,100759.41
2022-09-09T04:46:28.664Z,100759.34
2022-09-09T04:48:55.574Z,100758.38
2022-09-09T04:51:26.607Z,100763.59
2022-09-09T04:53:55.215Z,100764.47
2022-09-09T04:56:22.331Z,100769.84
2022-09-09T04:58:54.772Z,100774.09
2022-09-09T05:01:25.843Z,100776.53
2022-09-09T05:03:54.735Z,100771.88
2022-09-09T05:06:23.697Z,100771.16
2022-09-09T05:08:54.996Z,100769.94
2022-09-09T05:11:27.983Z,100765.28
2022-09-09T05:13:59.708Z,100759.72
2022-09-09T05:16:27.715Z,100760.44
2022-09-09T05:18:55.313Z,100757.59
2022-09-09T05:21:24.241Z,100757.41
2022-09-09T05:23:52.437Z,100755.78
2022-09-09T05:26:22.077Z,100754.72
2022-09-09T05:28:50.730Z,100763.81
2022-09-09T05:31:19.106Z,100759.63
2022-09-09T05:33:50.529Z,100763.88
2022-09-09T05:36:21.783Z,100762.59
2022-09-09T05:38:54.841Z,100761.19
2022-09-09T05:41:22.130Z,100770.66
2022-09-09T05:43:49.924Z,100775.75
2022-09-09T05:46:21.973Z,100777.78
2022-09-09T05:48:52.608Z,100776.13
2022-09-09T05:51:23.096Z,100780.59
2022-09-09T05:53:50.242Z,100778.09
2022-09-09T05:56:19.844Z,100773.38
2022-09-09T05:58:48.081Z,100783.59
2022-09-09T06:01:17.890Z,100791.06
2022-09-09T06:03:46.451Z,100792.75
2022-09-09T06:06:15.406Z,100786.59
2022-09-09T06:08:45.337Z,100802.66
2022-09-09T06:11:22.694Z,100800.84
2022-09-09T06:13:54.548Z,100796.19
2022-09-09T06:16:26.331Z,100792.50
2022-09-09T06:18:55.023Z,100805.44
2022-09-09T06:21:28.892Z,100806.16
2022-09-09T06:24:00.199Z,100811.13
2022-09-09T06:26:33.867Z,100810.53
2022-09-09T06:29:03.547Z,100811.75
2022-09-09T06:31:31.878Z,100812.63
2022-09-09T06:34:03.292Z,100808.94
2022-09-09T06:36:32.441Z,100803.63
2022-09-09T06:38:59.382Z,100811.34
2022-09-09T06:41:28.190Z,100815.28
2022-09-09T06:43:56.630Z,100807.50
2022-09-09T06:46:34.395Z,100799.25
2022-09-09T06:49:01.901Z,100805.03
2022-09-09T06:51:30.711Z,100802.03
2022-09-09T06:53:59.440Z,100805.41
2022-09-09T06:56:29.251Z,100802.88
2022-09-09T06:59:05.741Z,100804.34
2022-09-09T07:01:38.801Z,100798.81
2022-09-09T07:04:10.142Z,100799.34
2022-09-09T07:06:45.488Z,100793.53
2022-09-09T07:09:17.158Z,100796.50
2022-09-09T07:11:52.689Z,100802.31
2022-09-09T07:14:21.021Z,100798.63
2022-09-09T07:16:54.532Z,100792.94
2022-09-09T07:19:24.850Z,100791.19
2022-09-09T07:21:53.773Z,100796.53
2022-09-09T07:24:23.036Z,100792.50
2022-09-09T07:26:49.878Z,100793.75
2022-09-09T07:29:20.553Z,100800.09
2022-09-09T07:31:48.759Z,100805.28
2022-09-09T07:34:20.180Z,100797.63
2022-09-09T07:36:47.822Z,100808.16
2022-09-09T07:39:15.701Z,100817.91
2022-09-09T07:41:49.448Z,100811.19
2022-09-09T07:44:22.543Z,100815.19
2022-09-09T07:46:52.477Z,100808.59
2022-09-09T07:49:29.747Z,100813.34
2022-09-09T07:51:59.859Z,100813.41
2022-09-09T07:54:27.351Z,100818.81
2022-09-09T07:56:54.411Z,100823.03
2022-09-09T07:59:25.240Z,100827.25
2022-09-09T08:01:55.850Z,100828.78
2022-09-09T08:04:27.246Z,100826.81
2022-09-09T08:06:57.102Z,100827.28
2022-09-09T08:09:28.117Z,100834.94
2022-09-09T08:11:57.940Z,100835.72
2022-09-09T08:14:24.933Z,100836.44
2022-09-09T08:16:54.931Z,100841.22
2022-09-09T08:19:24.599Z,100833.53
2022-09-09T08:21:52.739Z,100841.66
2022-09-09T08:24:20.742Z,100828.66
2022-09-09T08:26:50.471Z,100830.47
2022-09-09T08:29:20.571Z,100840.88
2022-09-09T08:31:55.615Z,100836.38
2022-09-09T08:34:23.180Z,100831.38
2022-09-09T08:36:51.986Z,100832.56
2022-09-09T08:39:22.918Z,100836.00
2022-09-09T08:42:01.758Z,100829.63
2022-09-09T08:44:39.084Z,100833.03
2022-09-09T08:47:35.877Z,100833.44
2022-09-09T08:50:35.132Z,100831.53
2022-09-09T08:53:21.324Z,100836.06
2022-09-09T08:55:51.223Z,100839.22
2022-09-09T08:58:25.924Z,100839.28
2022-09-09T09:01:10.786Z,100841.78
2022-09-09T09:03:54.436Z,100846.97
2022-09-09T09:06:34.585Z,100839.47
2022-09-09T09:09:19.701Z,100843.28
2022-09-09T09:11:53.589Z,100842.38
2022-09-09T09:14:24.666Z,100841.38
2022-09-09T09:16:57.430Z,100835.88
2022-09-09T09:19:27.250Z,100835.47
2022-09-09T09:22:11.322Z,100835.34
2022-09-09T09:24:43.535Z,100829.19
2022-09-09T09:27:15.801Z,100838.28
2022-09-09T09:30:17.494Z,100837.66
2022-09-09T09:32:37.633Z,100842.13
2022-09-09T09:35:11.376Z,100837.94
2022-09-09T09:40:25.560Z,100824.84
2022-09-09T09:42:53.765Z,100829.38
2022-09-09T09:45:35.223Z,100833.06
2022-09-09T09:48:07.799Z,100822.66
2022-09-09T09:50:36.934Z,100827.22
2022-09-09T09:53:05.571Z,100828.09
2022-09-09T09:55:38.102Z,100830.03
2022-09-09T09:58:17.945Z,100830.75
2022-09-09T10:00:50.777Z,100821.47
2022-09-09T10:03:32.708Z,100824.66
2022-09-09T10:06:01.743Z,100820.38
2022-09-09T10:08:29.324Z,100831.41
2022-09-09T10:11:15.749Z,100825.50
2022-09-09T10:13:56.802Z,100831.69
2022-09-09T10:16:47.604Z,100831.81
2022-09-09T10:19:17.287Z,100831.81
2022-09-09T10:21:44.072Z,100833.97
2022-09-09T10:24:42.655Z,100834.28
2022-09-09T10:27:26.922Z,100822.66
2022-09-09T10:30:21.242Z,100831.81
2022-09-09T10:32:53.861Z,100827.38
2022-09-09T10:35:28.576Z,100822.38
2022-09-09T10:38:04.447Z,100823.13
2022-09-09T10:40:54.396Z,100815.06
2022-09-09T10:43:27.070Z,100826.84
2022-09-09T10:46:37.273Z,100818.09
2022-09-09T10:49:25.390Z,100818.72
2022-09-09T10:52:15.480Z,100822.38
2022-09-09T10:54:57.551Z,100819.53
2022-09-09T10:57:51.443Z,100829.38
2022-09-09T11:00:20.785Z,100820.59
2022-09-09T11:02:59.858Z,100821.53
2022-09-09T11:05:46.024Z,100816.13
2022-09-09T11:11:50.969Z,100814.34
2022-09-09T11:14:43.664Z,100815.94
2022-09-09T11:17:14.238Z,100807.94
2022-09-09T11:19:43.874Z,100810.56
2022-09-09T11:22:35.605Z,100813.09
2022-09-09T11:25:17.651Z,100816.94
2022-09-09T11:27:50.658Z,100815.44
2022-09-09T11:30:44.196Z,100810.31
2022-09-09T11:33:39.124Z,100816.66
2022-09-09T11:36:26.253Z,100812.03
2022-09-09T11:38:54.583Z,100807.22
2022-09-09T11:41:22.236Z,100799.75
2022-09-09T11:43:52.911Z,100801.06
2022-09-09T11:46:22.390Z,100802.13
2022-09-09T11:49:27.862Z,100796.47
2022-09-09T11:51:55.918Z,100790.97
2022-09-09T11:54:32.461Z,100795.50
2022-09-09T11:56:59.714Z,100787.69
2022-09-09T11:59:31.498Z,100778.19
2022-09-09T12:02:05.532Z,100777.09
2022-09-09T12:04:35.856Z,100784.22
2022-09-09T12:07:25.615Z,100781.03
2022-09-09T12:10:03.343Z,100769.16
2022-09-09T12:12:32.832Z,100757.59
2022-09-09T12:15:18.721Z,100771.28
2022-09-09T12:17:47.798Z,100763.66
2022-09-09T12:20:17.307Z,100762.28
2022-09-09T12:23:01.843Z,100761.53
2022-09-09T12:25:53.862Z,100765.50
2022-09-09T12:28:43.091Z,100766.63
2022-09-09T12:31:19.144Z,100765.38
2022-09-09T12:33:48.306Z,100760.53
2022-09-09T12:36:20.723Z,100757.13
2022-09-09T12:38:47.792Z,100750.44
2022-09-09T12:41:28.179Z,100755.88
2022-09-09T12:44:07.112Z,100758.63
2022-09-09T12:46:37.731Z,100760.44
2022-09-09T12:49:05.572Z,100753.28
2022-09-09T12:51:33.570Z,100766.13
2022-09-09T12:54:00.916Z,100763.47
2022-09-09T12:56:31.189Z,100769.66
2022-09-09T12:58:59.383Z,100780.66
2022-09-09T13:01:31.995Z,100779.44
2022-09-09T13:03:59.378Z,100783.72
2022-09-09T13:06:31.071Z,100780.47
2022-09-09T13:09:00.396Z,100779.44
2022-09-09T13:11:29.371Z,100781.56
2022-09-09T13:13:57.569Z,100780.41
2022-09-09T13:16:31.211Z,100773.53
2022-09-09T13:18:59.257Z,100774.69
2022-09-09T13:21:36.142Z,100771.44
2022-09-09T13:24:07.291Z,100768.31
2022-09-09T13:26:35.346Z,100762.44
2022-09-09T13:29:19.067Z,100747.25
2022-09-09T13:31:46.095Z,100750.16
2022-09-09T13:34:28.317Z,100750.59
2022-09-09T13:37:00.840Z,100747.13
2022-09-09T13:39:27.637Z,100747.09
2022-09-09T13:41:54.859Z,100749.66
2022-09-09T13:44:27.225Z,100748.97
2022-09-09T13:47:09.396Z,100745.47
2022-09-09T13:49:36.965Z,100743.81
2022-09-09T13:52:10.019Z,100737.13
2022-09-09T13:54:36.725Z,100740.81
2022-09-09T13:57:03.679Z,100739.69
2022-09-09T13:59:54.041Z,100741.69
2022-09-09T14:02:20.146Z,100740.88
2022-09-09T14:04:51.776Z,100742.56
2022-09-09T14:07:19.330Z,100742.44
2022-09-09T14:09:50.885Z,100736.69
2022-09-09T14:12:17.922Z,100740.56
2022-09-09T14:14:44.978Z,100736.13
2022-09-09T14:17:11.941Z,100734.66
2022-09-09T14:19:38.707Z,100737.41
2022-09-09T14:22:05.555Z,100741.13
2022-09-09T14:24:33.739Z,100745.16
2022-09-09T14:27:00.529Z,100743.25
2022-09-09T14:29:27.737Z,100745.00
2022-09-09T14:31:54.526Z,100737.88
2022-09-09T14:34:21.366Z,100742.03
2022-09-09T14:36:48.528Z,100740.94
2022-09-09T14:39:15.238Z,100750.78
2022-09-09T14:41:41.956Z,100743.44
2022-09-09T14:44:09.657Z,100747.00
2022-09-09T14:46:36.340Z,100747.63
2022-09-09T14:49:03.074Z,100751.38
2022-09-09T14:51:29.870Z,100753.25
2022-09-09T14:53:59.930Z,100750.03
2022-09-09T14:56:30.762Z,100761.13
2022-09-09T14:58:59.688Z,100751.50
2022-09-09T15:01:30.571Z,100755.28
2022-09-09T15:04:02.212Z,100755.38
2022-09-09T15:06:31.263Z,100747.84
2022-09-09T15:09:01.502Z,100742.41
2022-09-09T15:11:31.654Z,100736.72
2022-09-09T15:13:59.303Z,100738.13
2022-09-09T15:16:28.840Z,100729.78
2022-09-09T15:18:57.733Z,100726.09
2022-09-09T15:21:27.723Z,100721.63
2022-09-09T15:23:54.963Z,100721.66
2022-09-09T15:26:22.031Z,100717.28
2022-09-09T15:28:50.995Z,100714.09
2022-09-09T15:31:20.707Z,100714.59
2022-09-09T15:33:52.348Z,100709.03
2022-09-09T15:36:27.529Z,100711.16
2022-09-09T15:38:55.800Z,100717.75
2022-09-09T15:41:23.628Z,100705.19
2022-09-09T15:43:52.925Z,100705.22
2022-09-09T15:46:25.803Z,100700.72
2022-09-09T15:48:54.366Z,100699.25
2022-09-09T15:51:41.674Z,100701.00
2022-09-09T15:54:10.670Z,100699.56
2022-09-09T15:56:37.403Z,100696.16
2022-09-09T15:59:04.512Z,100700.28
2022-09-09T16:01:32.193Z,100698.47
2022-09-09T16:04:00.023Z,100709.81
2022-09-09T16:06:29.383Z,100695.63
2022-09-09T16:08:57.543Z,100701.16
2022-09-09T16:11:26.589Z,100704.09
2022-09-09T16:13:54.803Z,100717.97
2022-09-09T16:16:23.687Z,100732.53
2022-09-09T16:18:53.107Z,100745.94
2022-09-09T16:21:20.410Z,100743.28
2022-09-09T16:23:47.241Z,100746.81
2022-09-09T16:26:15.763Z,100757.47
2022-09-09T16:28:43.081Z,100756.88
2022-09-09T16:31:12.339Z,100752.16
2022-09-09T16:33:39.068Z,100743.88
2022-09-09T16:36:07.868Z,100753.06
2022-09-09T16:38:34.819Z,100748.84
2022-09-09T16:41:02.103Z,100747.41
2022-09-09T16:43:28.844Z,100753.00
2022-09-09T16:45:55.630Z,100755.84
2022-09-09T16:48:22.491Z,100751.78
2022-09-09T16:50:50.102Z,100749.59
2022-09-09T16:53:16.791Z,100742.09
2022-09-09T16:55:43.617Z,100734.47
2022-09-09T16:58:12.197Z,100742.28
2022-09-09T17:00:38.937Z,100743.53
2022-09-09T17:03:05.710Z,100739.75
2022-09-09T17:05:33.786Z,100729.50
2022-09-09T17:08:00.481Z,100732.00
2022-09-09T17:10:27.222Z,100737.09
2022-09-09T17:12:53.965Z,100747.72
2022-09-09T17:15:22.251Z,100748.47
2022-09-09T17:17:51.056Z,100750.97
2022-09-09T17:20:17.850Z,100744.31
2022-09-09T17:22:44.710Z,100734.97
2022-09-09T17:25:11.412Z,100734.56
2022-09-09T17:27:38.241Z,100728.06
2022-09-09T17:30:05.571Z,100725.94
2022-09-09T17:32:32.244Z,100727.06
2022-09-09T17:34:58.988Z,100720.38
2022-09-09T17:37:25.746Z,100716.59
2022-09-09T17:39:52.500Z,100716.06
2022-09-09T17:42:19.405Z,100722.84
2022-09-09T17:44:46.208Z,100727.78
2022-09-09T17:47:12.883Z,100739.13
2022-09-09T17:49:39.558Z,100738.63
2022-09-09T17:52:06.983Z,100736.78
2022-09-09T17:54:34.708Z,100737.09
2022-09-09T17:57:01.845Z,100736.59
2022-09-09T17:59:28.583Z,100744.78
2022-09-09T18:01:55.621Z,100742.94
2022-09-09T18:04:22.526Z,100747.66
2022-09-09T18:06:51.714Z,100744.78
2022-09-09T18:09:24.667Z,100747.88
2022-09-09T18:11:54.694Z,100749.94
2022-09-09T18:14:25.058Z,100757.44
2022-09-09T18:16:52.090Z,100769.75
2022-09-09T18:19:21.584Z,100773.78
2022-09-09T18:21:49.431Z,100775.34
2022-09-09T18:24:17.839Z,100789.09
2022-09-09T18:26:45.705Z,100791.63
2022-09-09T18:29:14.110Z,100794.06
2022-09-09T18:31:42.698Z,100799.06
2022-09-09T18:34:11.807Z,100798.88
2022-09-09T18:36:42.572Z,100808.31
2022-09-09T18:39:09.728Z,100810.59
2022-09-09T18:41:38.502Z,100817.03
2022-09-09T18:44:13.294Z,100824.56
2022-09-09T18:46:41.387Z,100830.38
2022-09-09T18:49:08.842Z,100831.72
2022-09-09T18:51:37.202Z,100830.81
2022-09-09T18:54:09.570Z,100834.63
2022-09-09T18:56:37.008Z,100830.19
2022-09-09T18:59:06.696Z,100833.97
2022-09-09T19:01:35.801Z,100837.88
2022-09-09T19:04:04.508Z,100831.81
2022-09-09T19:06:32.921Z,100837.53
2022-09-09T19:09:03.162Z,100833.22
2022-09-09T19:11:31.228Z,100833.00
2022-09-09T19:14:04.041Z,100839.59
2022-09-09T19:16:33.171Z,100845.91
2022-09-09T19:19:02.088Z,100851.72
2022-09-09T19:21:34.210Z,100846.44
2022-09-09T19:24:11.749Z,100846.75
2022-09-09T19:26:45.290Z,100842.97
2022-09-09T19:29:15.420Z,100844.81
2022-09-09T19:32:01.994Z,100854.97
2022-09-09T19:34:30.216Z,100855.06
2022-09-09T19:36:57.349Z,100847.06
2022-09-09T19:39:24.137Z,100853.56
2022-09-09T19:41:50.837Z,100850.75
2022-09-09T19:44:17.738Z,100857.00
2022-09-09T19:46:46.705Z,100850.63
2022-09-09T19:49:15.435Z,100856.50
2022-09-09T19:51:42.450Z,100851.38
2022-09-09T19:54:11.159Z,100858.28
2022-09-09T19:56:39.904Z,100862.72
2022-09-09T19:59:07.422Z,100870.03
2022-09-09T20:01:40.028Z,100864.00
2022-09-09T20:04:08.168Z,100852.53
2022-09-09T20:06:42.644Z,100853.53
2022-09-09T20:09:15.121Z,100857.00
2022-09-09T20:11:43.339Z,100864.00
2022-09-09T20:14:11.826Z,100852.16
2022-09-09T20:16:38.740Z,100852.16
2022-09-09T20:19:07.239Z,100851.13
2022-09-09T20:21:36.796Z,100855.91
2022-09-09T20:24:06.173Z,100858.72
2022-09-09T20:26:35.311Z,100863.91
2022-09-09T20:29:07.845Z,100865.31
2022-09-09T20:31:37.179Z,100866.44
2022-09-09T20:34:05.142Z,100860.94
2022-09-09T20:36:34.483Z,100858.22
2022-09-09T20:39:04.637Z,100853.75
2022-09-09T20:41:32.601Z,100858.09
2022-09-09T20:44:08.445Z,100862.63
2022-09-09T20:46:37.488Z,100850.41
2022-09-09T20:49:06.291Z,100846.19
2022-09-09T20:51:34.264Z,100838.50
2022-09-09T20:54:16.305Z,100822.59
2022-09-09T20:56:44.601Z,100826.78
2022-09-09T20:59:14.206Z,100824.06
2022-09-09T21:01:41.547Z,100820.16
2022-09-09T21:04:09.835Z,100820.66
2022-09-09T21:06:36.656Z,100811.13
2022-09-09T21:09:03.408Z,100812.81
2022-09-09T21:11:30.146Z,100817.56
2022-09-09T21:13:56.831Z,100809.97
2022-09-09T21:16:23.555Z,100813.91
2022-09-09T21:18:50.500Z,100802.53
2022-09-09T21:21:21.284Z,100808.25
2022-09-09T21:23:54.789Z,100810.47
2022-09-09T21:26:22.458Z,100817.03
2022-09-09T21:28:49.368Z,100815.47
2022-09-09T21:31:17.194Z,100811.91
2022-09-09T21:33:43.949Z,100818.16
2022-09-09T21:36:11.559Z,100820.97
2022-09-09T21:38:40.469Z,100819.53
2022-09-09T21:41:09.156Z,100819.94
2022-09-09T21:43:35.977Z,100825.50
2022-09-09T21:46:07.951Z,100821.19
2022-09-09T21:48:35.412Z,100823.97
2022-09-09T21:51:04.578Z,100823.41
2022-09-09T21:53:32.447Z,100819.81
2022-09-09T21:56:07.287Z,100820.97
2022-09-09T21:58:34.549Z,100822.22
2022-09-09T22:01:01.641Z,100814.06
2022-09-09T22:03:28.423Z,100816.97
2022-09-09T22:05:56.211Z,100832.34
2022-09-09T22:08:22.922Z,100828.22
2022-09-09T22:10:49.646Z,100831.00
2022-09-09T22:13:17.565Z,100834.06
2022-09-09T22:15:45.854Z,100836.94
2022-09-09T22:18:13.504Z,100839.53
2022-09-09T22:20:42.758Z,100836.38
2022-09-09T22:23:10.534Z,100841.84
2022-09-09T22:25:38.178Z,100840.00
2022-09-09T22:28:06.734Z,100842.81
2022-09-09T22:30:34.034Z,100846.63
2022-09-09T22:33:03.592Z,100841.44
2022-09-09T22:35:30.253Z,100843.50
2022-09-09T22:37:57.953Z,100849.97
2022-09-09T22:40:24.990Z,100847.56
2022-09-09T22:42:53.152Z,100844.25
2022-09-09T22:45:21.846Z,100850.63
2022-09-09T22:47:48.590Z,100843.75
2022-09-09T22:50:15.404Z,100846.63
2022-09-09T22:52:42.447Z,100852.00
2022-09-09T22:55:09.547Z,100847.75
2022-09-09T22:57:37.496Z,100840.91
2022-09-09T23:00:07.990Z,100842.75
2022-09-09T23:02:38.674Z,100842.94
2022-09-09T23:05:09.074Z,100837.72
2022-09-09T23:07:36.823Z,100828.09
2022-09-09T23:10:07.085Z,100834.63
2022-09-09T23:12:34.244Z,100833.84
2022-09-09T23:15:01.001Z,100827.59
2022-09-09T23:17:27.882Z,100840.38
2022-09-09T23:19:57.680Z,100841.22
2022-09-09T23:22:24.736Z,100842.28
2022-09-09T23:24:52.917Z,100843.13
2022-09-09T23:27:21.468Z,100845.75
2022-09-09T23:29:48.955Z,100845.75
2022-09-09T23:32:15.907Z,100846.69
2022-09-09T23:34:42.644Z,100846.59
2022-09-09T23:37:11.306Z,100836.63
2022-09-09T23:39:40.486Z,100837.66
2022-09-09T23:42:08.521Z,100826.28
2022-09-09T23:44:38.407Z,100833.50
2022-09-09T23:47:06.098Z,100829.75
2022-09-09T23:49:36.812Z,100836.19
2022-09-09T23:52:05.433Z,100832.66
2022-09-09T23:54:33.181Z,100831.97
2022-09-09T23:57:00.120Z,100830.13
2022-09-09T23:59:26.886Z,100823.88
